Time;durP1;ratioP1;P1;durP2;ratioP2;P2;SDS_P1;SDS_P2;PMS_P1;PMS_P2;Temp;Humidity;BMP_temperature;BMP_pressure;BME280_temperature;BME280_humidity;BME280_pressure;Samples;Min_cycle;Max_cycle;Signal;HPM_P1;HPM_P2
2022/11/06 00:01:10;;;;;;;7.68;2.47;;;11.30;99.90;;;;;;4986597;28;20181;-94
2022/11/06 00:03:37;;;;;;;5.38;2.10;;;11.40;99.90;;;;;;4986908;28;20193;-91
2022/11/06 00:08:57;;;;;;;6.68;2.40;;;11.70;99.90;;;;;;4984473;28;20257;-85
2022/11/06 00:11:22;;;;;;;9.73;2.30;;;11.70;99.90;;;;;;4981542;28;20182;-86
2022/11/06 00:13:51;;;;;;;5.45;1.88;;;11.70;99.90;;;;;;4979252;28;20173;-96
2022/11/06 00:16:17;;;;;;;9.77;2.92;;;11.70;99.90;;;;;;4982405;28;20173;-79
2022/11/06 00:18:43;;;;;;;10.38;2.58;;;11.80;99.90;;;;;;4988138;28;20198;-96
2022/11/06 00:21:20;;;;;;;8.02;2.17;;;11.70;99.90;;;;;;4993683;28;20180;-94
2022/11/06 00:23:46;;;;;;;3.83;2.03;;;11.70;99.90;;;;;;4991847;28;20213;-94
2022/11/06 00:26:14;;;;;;;10.73;2.10;;;11.60;99.90;;;;;;4984636;28;20174;-87
2022/11/06 00:28:41;;;;;;;6.95;1.90;;;11.70;99.90;;;;;;4984508;28;20205;-77
2022/11/06 00:31:17;;;;;;;5.57;2.40;;;11.70;99.90;;;;;;4988306;28;20178;-85
2022/11/06 00:33:43;;;;;;;8.35;2.53;;;11.80;99.90;;;;;;4997929;28;20162;-88
2022/11/06 00:36:19;;;;;;;6.75;2.25;;;11.80;99.90;;;;;;4995932;28;20177;-80
2022/11/06 00:38:46;;;;;;;5.65;2.42;;;11.70;99.90;;;;;;4993225;28;20229;-90
2022/11/06 00:41:18;;;;;;;7.93;2.00;;;11.80;99.90;;;;;;4986720;28;20349;-81
2022/11/06 00:43:48;;;;;;;11.57;3.15;;;11.90;99.90;;;;;;4969240;28;20186;-90
2022/11/06 00:46:14;;;;;;;4.80;1.73;;;11.90;99.90;;;;;;4988435;28;20178;-95
2022/11/06 00:48:41;;;;;;;5.05;1.73;;;12.00;99.90;;;;;;4986496;28;20233;-95
2022/11/06 00:51:19;;;;;;;9.85;1.75;;;11.90;99.90;;;;;;4980380;28;20173;-77
2022/11/06 00:53:45;;;;;;;5.18;2.10;;;11.90;99.90;;;;;;4980093;28;20181;-82
2022/11/06 00:56:14;;;;;;;5.22;1.92;;;11.90;99.90;;;;;;4979495;28;20170;-81
2022/11/06 00:58:40;;;;;;;7.03;1.80;;;11.90;99.90;;;;;;4979853;28;20213;-78
2022/11/06 01:01:16;;;;;;;3.78;2.00;;;11.90;99.90;;;;;;4981864;28;20176;-93
2022/11/06 01:03:46;;;;;;;11.48;2.15;;;11.90;99.90;;;;;;4974450;28;20632;-78
2022/11/06 01:06:14;;;;;;;9.32;2.55;;;11.90;99.90;;;;;;4973995;28;20695;-80
2022/11/06 01:08:41;;;;;;;7.15;2.38;;;11.90;99.90;;;;;;4975235;28;20252;-77
2022/11/06 01:11:22;;;;;;;10.38;2.38;;;11.90;99.90;;;;;;4973892;28;20197;-78
2022/11/06 01:13:53;;;;;;;12.27;2.28;;;12.00;99.90;;;;;;4976679;28;20181;-81
2022/11/06 01:16:19;;;;;;;8.05;2.10;;;11.90;99.90;;;;;;4976619;28;20173;-80
2022/11/06 01:18:45;;;;;;;8.15;1.67;;;11.80;99.90;;;;;;4976381;28;20210;-80
2022/11/06 01:21:16;;;;;;;11.30;2.47;;;11.90;99.90;;;;;;4974678;28;20169;-78
2022/11/06 01:23:42;;;;;;;4.55;1.83;;;11.80;99.90;;;;;;4974022;28;20173;-78
2022/11/06 01:26:09;;;;;;;4.97;1.92;;;11.70;99.90;;;;;;4974049;28;20162;-78
2022/11/06 01:28:38;;;;;;;6.57;1.70;;;11.80;99.90;;;;;;4974211;28;20216;-87
2022/11/06 01:31:05;;;;;;;5.53;2.08;;;11.80;99.90;;;;;;4972382;28;20247;-81
2022/11/06 01:33:31;;;;;;;8.55;2.05;;;11.80;99.90;;;;;;4974365;28;20223;-80
2022/11/06 01:35:57;;;;;;;5.65;2.05;;;11.80;99.90;;;;;;4974307;28;20173;-78
2022/11/06 01:38:22;;;;;;;5.78;1.50;;;11.90;99.90;;;;;;4973086;28;20209;-78
2022/11/06 01:40:48;;;;;;;8.02;2.25;;;11.90;99.90;;;;;;4973289;28;20197;-78
2022/11/06 01:43:19;;;;;;;5.65;2.70;;;11.90;99.90;;;;;;4973598;28;20178;-78
2022/11/06 01:45:48;;;;;;;6.68;1.63;;;12.00;99.90;;;;;;4973604;28;20507;-80
2022/11/06 01:48:35;;;;;;;6.05;1.70;;;11.90;99.90;;;;;;4977674;28;20231;-94
2022/11/06 01:51:00;;;;;;;5.45;2.00;;;12.00;99.90;;;;;;4980832;28;20660;-90
2022/11/06 01:53:26;;;;;;;9.93;2.33;;;11.90;99.90;;;;;;4965946;28;20173;-94
2022/11/06 01:55:59;;;;;;;11.52;2.25;;;11.90;99.90;;;;;;4979445;28;20170;-80
2022/11/06 01:58:29;;;;;;;8.07;2.47;;;11.70;99.90;;;;;;4978033;28;20272;-91
2022/11/06 02:00:55;;;;;;;6.32;1.65;;;11.70;99.90;;;;;;4977799;28;20166;-86
2022/11/06 02:03:20;;;;;;;6.55;1.90;;;11.60;99.90;;;;;;4978716;28;20633;-79
2022/11/06 02:05:46;;;;;;;7.18;1.90;;;11.50;99.90;;;;;;4976424;28;20525;-78
2022/11/06 02:08:16;;;;;;;10.45;2.05;;;11.50;99.90;;;;;;4979168;28;20186;-81
2022/11/06 02:11:05;;;;;;;5.78;1.42;;;11.40;99.90;;;;;;4979270;28;20256;-96
2022/11/06 02:13:50;;;;;;;7.47;1.85;;;11.40;99.90;;;;;;4992342;28;20150;-86
2022/11/06 02:16:26;;;;;;;6.13;2.03;;;11.40;99.90;;;;;;4993938;28;20197;-83
2022/11/06 02:19:13;;;;;;;11.73;2.03;;;11.40;99.90;;;;;;4992610;28;20213;-79
2022/11/06 02:22:12;;;;;;;7.07;1.98;;;11.40;99.90;;;;;;4992563;28;20178;-79
2022/11/06 02:25:30;;;;;;;9.32;2.90;;;11.60;99.90;;;;;;4984951;28;20202;-78
2022/11/06 02:28:07;;;;;;;5.88;1.63;;;11.60;99.90;;;;;;4926924;29;20204;-83
2022/11/06 02:30:40;;;;;;;7.70;1.73;;;11.70;99.90;;;;;;4976385;28;20185;-78
2022/11/06 02:33:10;;;;;;;3.20;1.92;;;11.80;99.90;;;;;;4977012;28;20625;-79
2022/11/06 02:35:48;;;;;;;2.90;1.55;;;11.70;99.90;;;;;;4976486;28;20177;-78
2022/11/06 02:38:19;;;;;;;3.67;1.67;;;11.70;99.90;;;;;;4978725;28;20687;-81
2022/11/06 02:40:58;;;;;;;4.55;1.67;;;11.80;99.90;;;;;;4976750;28;20162;-77
2022/11/06 02:43:51;;;;;;;15.13;1.58;;;11.80;99.90;;;;;;4976735;28;20172;-83
2022/11/06 02:46:36;;;;;;;9.30;1.63;;;11.80;99.90;;;;;;4977308;28;20180;-80
2022/11/06 02:49:08;;;;;;;8.90;2.17;;;11.90;99.90;;;;;;4976268;28;20213;-78
2022/11/06 02:51:41;;;;;;;3.58;1.83;;;12.00;99.90;;;;;;4979766;28;20174;-84
2022/11/06 02:54:08;;;;;;;5.18;1.63;;;12.00;99.90;;;;;;4982534;28;20799;-78
2022/11/06 02:56:40;;;;;;;5.43;1.40;;;11.90;99.90;;;;;;4983665;28;20652;-77
2022/11/06 02:59:16;;;;;;;5.22;1.67;;;11.90;99.90;;;;;;4986586;28;20209;-90
2022/11/06 03:01:45;;;;;;;4.10;1.60;;;11.80;99.90;;;;;;4980363;28;20166;-93
2022/11/06 03:04:21;;;;;;;6.97;1.67;;;11.80;99.90;;;;;;4978844;28;20181;-78
2022/11/06 03:06:58;;;;;;;6.50;2.70;;;11.80;99.90;;;;;;4981614;28;20162;-78
2022/11/06 03:09:30;;;;;;;4.97;1.80;;;11.90;99.90;;;;;;4976960;28;20268;-79
2022/11/06 03:12:08;;;;;;;7.53;1.55;;;11.70;99.90;;;;;;4977422;28;20196;-82
2022/11/06 03:14:43;;;;;;;2.42;1.40;;;11.80;99.90;;;;;;4976900;28;20177;-83
2022/11/06 03:17:20;;;;;;;4.97;1.75;;;11.80;99.90;;;;;;4977306;28;20260;-78
2022/11/06 03:19:59;;;;;;;11.25;2.33;;;11.90;99.90;;;;;;4976825;28;20237;-79
2022/11/06 03:22:40;;;;;;;3.55;1.50;;;11.90;99.90;;;;;;4975770;28;20589;-80
2022/11/06 03:25:30;;;;;;;5.25;2.00;;;12.00;99.90;;;;;;4976180;28;20177;-78
2022/11/06 03:28:05;;;;;;;7.72;1.73;;;12.00;99.90;;;;;;4975076;28;20280;-88
2022/11/06 03:30:36;;;;;;;4.47;1.83;;;11.90;99.90;;;;;;4975903;28;20604;-77
2022/11/06 03:33:12;;;;;;;2.47;1.55;;;11.80;99.90;;;;;;4975537;28;20169;-78
2022/11/06 03:35:43;;;;;;;7.70;1.92;;;11.80;99.90;;;;;;4975604;28;20170;-78
2022/11/06 03:38:24;;;;;;;9.35;1.77;;;11.60;99.90;;;;;;4975323;28;20288;-92
2022/11/06 03:40:54;;;;;;;12.13;1.75;;;11.60;99.90;;;;;;4979791;28;20177;-77
2022/11/06 03:43:25;;;;;;;4.18;1.77;;;11.60;99.90;;;;;;4979200;28;20595;-78
2022/11/06 03:45:52;;;;;;;9.43;2.05;;;11.50;99.90;;;;;;4978616;28;20170;-89
2022/11/06 03:48:33;;;;;;;3.60;1.35;;;11.60;99.90;;;;;;4978755;28;20276;-78
2022/11/06 03:51:25;;;;;;;5.22;1.65;;;11.70;99.90;;;;;;4976979;28;20181;-78
2022/11/06 03:53:56;;;;;;;4.45;1.92;;;11.70;99.90;;;;;;4978344;28;20197;-78
2022/11/06 03:56:30;;;;;;;7.88;1.88;;;11.60;99.90;;;;;;4979301;28;20644;-78
2022/11/06 03:58:57;;;;;;;4.65;1.65;;;11.60;99.90;;;;;;4977900;28;20310;-81
2022/11/06 04:01:27;;;;;;;5.75;1.50;;;11.60;99.90;;;;;;4979148;28;20181;-82
2022/11/06 04:04:09;;;;;;;3.58;1.33;;;11.50;99.90;;;;;;4978543;28;20194;-82
2022/11/06 04:06:42;;;;;;;2.67;1.50;;;11.50;99.90;;;;;;4978947;28;20256;-78
2022/11/06 04:14:46;;;;;;;3.55;1.40;;;11.60;99.90;;;;;;4978678;28;20274;-77
2022/11/06 04:17:15;;;;;;;11.20;1.85;;;11.60;99.90;;;;;;4978303;28;20170;-78
2022/11/06 04:19:51;;;;;;;4.28;1.65;;;11.70;99.90;;;;;;4978931;28;20198;-78
2022/11/06 04:22:21;;;;;;;5.43;1.92;;;11.60;99.90;;;;;;4978551;28;20174;-81
2022/11/06 04:28:17;;;;;;;5.65;2.15;;;11.60;99.90;;;;;;4977117;28;20689;-78
2022/11/06 04:31:22;;;;;;;5.72;1.77;;;11.50;99.90;;;;;;4976867;28;20173;-77
2022/11/06 04:34:12;;;;;;;3.85;1.63;;;11.40;99.90;;;;;;4989854;28;20239;-78
2022/11/06 04:36:52;;;;;;;4.07;1.55;;;11.30;99.90;;;;;;4977166;28;20573;-77
2022/11/06 04:39:32;;;;;;;9.18;1.80;;;11.30;99.90;;;;;;4974746;28;20217;-82
2022/11/06 04:42:32;;;;;;;2.47;1.60;;;11.30;99.90;;;;;;4975928;28;20172;-78
2022/11/06 04:45:03;;;;;;;3.35;1.40;;;11.40;99.90;;;;;;4975454;28;20174;-78
2022/11/06 04:47:30;;;;;;;2.05;1.48;;;11.40;99.90;;;;;;4976202;28;20660;-78
2022/11/06 04:49:58;;;;;;;8.98;1.60;;;11.40;99.90;;;;;;4975297;28;20170;-77
2022/11/06 04:52:26;;;;;;;2.78;1.23;;;11.50;99.90;;;;;;4975464;28;20174;-78
2022/11/06 04:54:54;;;;;;;7.18;2.25;;;11.40;99.90;;;;;;4976281;28;20170;-77
2022/11/06 04:57:22;;;;;;;3.08;1.50;;;11.40;99.90;;;;;;4975576;28;20704;-77
2022/11/06 04:59:48;;;;;;;3.67;1.65;;;11.50;99.90;;;;;;4974325;28;20213;-80
2022/11/06 05:02:14;;;;;;;6.63;2.22;;;11.60;99.90;;;;;;4977085;28;20527;-77
2022/11/06 05:04:39;;;;;;;5.63;1.65;;;11.60;99.90;;;;;;4976951;28;20174;-77
2022/11/06 05:07:05;;;;;;;4.45;1.60;;;11.60;99.90;;;;;;4977030;28;20170;-84
2022/11/06 05:09:30;;;;;;;9.75;1.83;;;11.60;99.90;;;;;;4978012;28;20249;-78
2022/11/06 05:11:56;;;;;;;15.38;1.48;;;11.50;99.90;;;;;;4975089;28;20166;-87
2022/11/06 05:14:22;;;;;;;8.63;2.53;;;11.70;99.90;;;;;;4980796;28;20695;-83
2022/11/06 05:16:47;;;;;;;4.72;1.70;;;11.70;99.90;;;;;;4982478;28;20166;-81
2022/11/06 05:19:17;;;;;;;3.58;1.60;;;11.50;99.90;;;;;;4981038;28;20213;-80
2022/11/06 05:24:30;;;;;;;7.63;1.92;;;11.50;99.90;;;;;;4978967;28;20821;-78
2022/11/06 05:26:55;;;;;;;11.93;1.75;;;11.40;99.90;;;;;;4983236;28;20158;-78
2022/11/06 05:29:21;;;;;;;6.20;1.35;;;11.40;99.90;;;;;;4985519;28;20193;-78
2022/11/06 05:31:46;;;;;;;6.55;1.80;;;11.40;99.90;;;;;;4984940;28;20166;-85
2022/11/06 05:34:12;;;;;;;6.10;1.63;;;11.40;99.90;;;;;;4979936;28;20616;-78
2022/11/06 05:36:38;;;;;;;9.50;2.25;;;11.50;99.90;;;;;;4979583;28;20528;-88
2022/11/06 05:39:04;;;;;;;6.50;2.00;;;11.60;99.90;;;;;;4979321;28;20210;-81
2022/11/06 05:41:29;;;;;;;7.78;1.70;;;11.80;99.90;;;;;;4979948;28;20170;-83
2022/11/06 05:43:56;;;;;;;8.30;1.88;;;11.80;99.90;;;;;;4981633;28;20225;-85
2022/11/06 05:46:22;;;;;;;5.25;1.77;;;11.80;99.90;;;;;;4979239;28;20216;-83
2022/11/06 05:48:52;;;;;;;8.98;1.92;;;11.80;99.90;;;;;;4979456;28;20197;-89
2022/11/06 05:51:18;;;;;;;4.85;1.85;;;11.80;99.90;;;;;;4980016;28;20166;-91
2022/11/06 05:53:44;;;;;;;4.53;1.63;;;11.80;99.90;;;;;;4984000;28;20173;-79
2022/11/06 05:56:10;;;;;;;6.03;2.00;;;11.90;99.90;;;;;;4983021;28;20170;-91
2022/11/06 05:58:35;;;;;;;3.63;1.60;;;11.90;99.90;;;;;;4985204;28;20213;-83
2022/11/06 06:01:01;;;;;;;9.18;1.88;;;11.90;99.90;;;;;;4990011;28;20189;-80
2022/11/06 06:03:27;;;;;;;8.13;2.38;;;11.90;99.90;;;;;;4991878;28;20177;-80
2022/11/06 06:05:53;;;;;;;3.35;1.25;;;11.90;99.90;;;;;;4984891;28;20171;-84
2022/11/06 06:08:19;;;;;;;7.13;1.65;;;12.00;99.90;;;;;;4979112;28;20273;-80
2022/11/06 06:10:45;;;;;;;9.05;1.70;;;12.00;99.90;;;;;;4978914;28;20233;-77
2022/11/06 06:13:12;;;;;;;5.18;1.35;;;12.20;99.90;;;;;;4979498;28;20181;-85
2022/11/06 06:15:39;;;;;;;5.43;1.60;;;12.20;99.90;;;;;;4979640;28;20189;-81
2022/11/06 06:18:06;;;;;;;2.42;1.52;;;12.20;99.90;;;;;;4979673;28;20196;-91
2022/11/06 06:20:32;;;;;;;5.07;1.40;;;12.10;99.90;;;;;;4980696;28;20162;-78
2022/11/06 06:22:58;;;;;;;12.55;1.55;;;12.00;99.90;;;;;;4979520;28;20643;-85
2022/11/06 06:25:25;;;;;;;4.38;1.60;;;12.10;99.90;;;;;;4978364;28;20567;-82
2022/11/06 06:27:53;;;;;;;10.57;1.48;;;12.10;99.90;;;;;;4978707;28;20217;-83
2022/11/06 06:30:19;;;;;;;4.78;1.80;;;12.30;99.90;;;;;;4977998;28;20208;-79
2022/11/06 06:32:45;;;;;;;6.60;1.67;;;12.30;99.90;;;;;;4979593;28;20162;-79
2022/11/06 06:35:10;;;;;;;6.47;1.80;;;12.20;99.90;;;;;;4981915;28;20177;-79
2022/11/06 06:37:36;;;;;;;3.45;1.52;;;12.20;99.90;;;;;;4980237;28;20221;-91
2022/11/06 06:40:03;;;;;;;9.85;1.92;;;12.20;99.90;;;;;;4978849;28;20210;-77
2022/11/06 06:42:29;;;;;;;4.13;1.20;;;12.20;99.90;;;;;;4979127;28;20166;-87
2022/11/06 06:44:54;;;;;;;8.15;1.77;;;12.20;99.90;;;;;;4981026;28;20691;-79
2022/11/06 06:47:20;;;;;;;4.93;1.38;;;12.00;99.90;;;;;;4978342;28;20225;-85
2022/11/06 06:49:45;;;;;;;4.13;1.40;;;11.90;99.90;;;;;;4978420;28;20169;-78
2022/11/06 06:52:12;;;;;;;11.05;1.90;;;12.10;99.90;;;;;;4961351;28;20201;-77
2022/11/06 06:54:38;;;;;;;4.18;1.70;;;12.20;99.90;;;;;;4978264;28;20205;-84
2022/11/06 06:57:25;;;;;;;6.20;1.30;;;12.30;99.90;;;;;;4978348;28;20311;-84
2022/11/06 06:59:52;;;;;;;6.35;1.70;;;12.30;99.90;;;;;;4981793;28;20221;-86
2022/11/06 07:02:21;;;;;;;1.63;1.00;;;12.30;99.90;;;;;;4976750;28;20193;-92
2022/11/06 07:04:47;;;;;;;4.95;1.48;;;12.40;99.90;;;;;;4984223;28;20205;-86
2022/11/06 07:07:19;;;;;;;10.20;1.45;;;12.50;99.90;;;;;;4981541;28;20162;-78
2022/11/06 07:09:48;;;;;;;3.30;1.20;;;12.40;99.90;;;;;;4985027;28;20180;-77
2022/11/06 07:12:15;;;;;;;8.27;2.17;;;12.40;99.90;;;;;;4979413;28;20169;-95
2022/11/06 07:14:42;;;;;;;4.65;1.40;;;12.40;99.90;;;;;;4985799;28;20261;-77
2022/11/06 07:17:08;;;;;;;4.85;1.50;;;12.50;99.90;;;;;;4978329;28;20192;-86
2022/11/06 07:19:34;;;;;;;5.57;2.05;;;12.40;99.90;;;;;;4976557;28;20637;-86
2022/11/06 07:21:59;;;;;;;11.35;1.58;;;12.50;99.90;;;;;;4978773;28;20177;-94
2022/11/06 07:24:25;;;;;;;5.97;1.42;;;12.60;99.90;;;;;;4979880;28;20178;-91
2022/11/06 07:26:50;;;;;;;5.55;1.50;;;12.60;99.90;;;;;;4982040;28;20636;-93
2022/11/06 07:29:16;;;;;;;2.55;1.50;;;12.80;99.90;;;;;;4980356;28;20253;-95
2022/11/06 07:31:41;;;;;;;9.32;1.33;;;12.80;99.90;;;;;;4981761;28;20173;-94
2022/11/06 07:34:08;;;;;;;3.22;1.40;;;12.70;99.90;;;;;;4979782;28;20687;-94
2022/11/06 07:36:49;;;;;;;7.32;1.40;;;12.80;99.90;;;;;;4985607;28;20232;-95
2022/11/06 07:39:15;;;;;;;3.50;1.40;;;12.90;99.90;;;;;;4988152;28;20186;-96
2022/11/06 07:41:40;;;;;;;1.30;0.90;;;12.90;99.90;;;;;;4979761;28;20821;-89
2022/11/06 07:44:06;;;;;;;4.57;1.23;;;13.00;99.90;;;;;;4977549;28;20178;-94
2022/11/06 07:47:11;;;;;;;3.13;1.25;;;12.90;99.90;;;;;;4994414;28;20166;-83
2022/11/06 07:49:37;;;;;;;2.00;1.20;;;13.00;99.90;;;;;;4983504;28;20186;-92
2022/11/06 07:52:04;;;;;;;3.45;1.17;;;13.20;99.90;;;;;;4981096;28;20174;-94
2022/11/06 07:54:39;;;;;;;7.68;1.30;;;13.20;99.90;;;;;;4980762;28;20193;-85
2022/11/06 07:57:05;;;;;;;2.38;1.00;;;13.30;99.90;;;;;;4989200;28;20176;-91
2022/11/06 07:59:32;;;;;;;5.10;1.73;;;13.30;99.90;;;;;;4994868;28;20197;-94
2022/11/06 08:01:57;;;;;;;8.05;1.60;;;13.30;99.90;;;;;;4995881;28;20170;-90
2022/11/06 08:04:23;;;;;;;4.95;1.40;;;13.50;99.90;;;;;;4985599;28;20232;-94
2022/11/06 08:06:49;;;;;;;2.42;1.20;;;13.50;99.90;;;;;;4969573;28;20182;-90
2022/11/06 08:09:15;;;;;;;2.10;1.08;;;13.50;99.90;;;;;;4970681;28;20194;-81
2022/11/06 08:11:47;;;;;;;2.88;1.40;;;13.50;99.90;;;;;;4969109;28;20185;-85
2022/11/06 08:14:13;;;;;;;4.70;1.30;;;13.50;99.90;;;;;;4975658;28;20217;-92
2022/11/06 08:16:38;;;;;;;4.30;1.38;;;13.50;99.90;;;;;;4980541;28;20185;-87
2022/11/06 08:19:04;;;;;;;4.38;1.45;;;13.50;99.90;;;;;;4965172;28;20239;-84
2022/11/06 08:21:29;;;;;;;2.35;1.25;;;13.50;99.90;;;;;;4979833;28;20177;-91
2022/11/06 08:23:55;;;;;;;2.70;1.50;;;13.60;99.90;;;;;;4978835;28;20717;-78
2022/11/06 08:26:21;;;;;;;5.80;1.40;;;13.60;99.90;;;;;;4978338;28;20169;-78
2022/11/06 08:28:46;;;;;;;11.32;2.40;;;13.50;99.90;;;;;;4976787;28;20528;-79
2022/11/06 08:31:12;;;;;;;3.70;1.20;;;13.40;99.90;;;;;;4978847;28;20732;-78
2022/11/06 08:33:38;;;;;;;4.90;1.50;;;13.30;99.90;;;;;;4974234;28;20292;-83
2022/11/06 08:36:06;;;;;;;3.35;1.35;;;13.40;99.90;;;;;;4976007;28;20205;-79
2022/11/06 08:38:31;;;;;;;3.08;1.30;;;13.40;99.90;;;;;;4975678;28;20694;-78
2022/11/06 08:40:57;;;;;;;6.68;1.60;;;13.40;99.90;;;;;;4975613;28;20264;-84
2022/11/06 08:43:26;;;;;;;3.60;1.35;;;13.40;99.90;;;;;;4977636;28;20162;-79
2022/11/06 08:45:52;;;;;;;3.78;1.58;;;13.40;99.90;;;;;;4977818;28;20178;-82
2022/11/06 08:48:18;;;;;;;3.95;1.27;;;13.50;99.90;;;;;;4975939;28;20559;-79
2022/11/06 08:50:43;;;;;;;4.05;1.65;;;13.50;99.90;;;;;;4976581;28;20241;-79
2022/11/06 08:53:09;;;;;;;5.22;1.77;;;13.30;99.90;;;;;;4978031;28;20197;-84
2022/11/06 08:55:38;;;;;;;2.80;1.60;;;13.30;99.90;;;;;;4978795;28;20158;-93
2022/11/06 08:58:05;;;;;;;5.07;1.35;;;13.40;99.90;;;;;;4984274;28;20218;-90
2022/11/06 09:00:31;;;;;;;6.00;1.40;;;13.30;99.90;;;;;;4981094;28;20184;-88
2022/11/06 09:03:04;;;;;;;7.80;1.55;;;13.20;99.90;;;;;;4979457;28;20640;-84
2022/11/06 09:05:30;;;;;;;2.95;1.67;;;13.30;99.90;;;;;;4975263;28;20174;-81
2022/11/06 09:07:56;;;;;;;4.07;1.52;;;13.30;99.90;;;;;;4973710;28;20210;-80
2022/11/06 09:10:23;;;;;;;6.75;1.45;;;13.40;99.90;;;;;;4973368;28;20568;-79
2022/11/06 09:12:51;;;;;;;7.63;1.83;;;13.30;99.90;;;;;;4983749;28;20165;-79
2022/11/06 09:15:21;;;;;;;7.97;1.60;;;13.40;99.90;;;;;;4980974;28;20206;-83
2022/11/06 09:17:48;;;;;;;5.28;1.40;;;13.50;99.90;;;;;;4973805;28;20223;-83
2022/11/06 09:20:16;;;;;;;5.43;1.73;;;13.60;99.90;;;;;;4973596;28;20198;-87
2022/11/06 09:22:42;;;;;;;9.18;1.85;;;13.50;99.90;;;;;;4974061;28;20162;-80
2022/11/06 09:25:09;;;;;;;3.10;1.60;;;13.50;99.90;;;;;;4973206;28;20178;-91
2022/11/06 09:27:42;;;;;;;3.88;1.67;;;13.50;99.90;;;;;;4980117;28;20185;-83
2022/11/06 09:30:09;;;;;;;8.88;1.95;;;13.60;99.90;;;;;;4980637;28;20154;-91
2022/11/06 09:32:35;;;;;;;3.45;1.65;;;13.60;99.90;;;;;;4979405;28;20221;-87
2022/11/06 09:35:01;;;;;;;3.90;1.52;;;13.80;99.90;;;;;;4980200;28;20174;-86
2022/11/06 09:37:26;;;;;;;2.67;1.70;;;13.80;99.90;;;;;;4983383;28;20177;-83
2022/11/06 09:39:52;;;;;;;3.80;1.40;;;13.90;99.90;;;;;;4985036;28;20564;-83
2022/11/06 09:42:44;;;;;;;3.95;2.35;;;13.90;99.90;;;;;;4988924;28;20170;-84
2022/11/06 09:45:21;;;;;;;3.55;1.48;;;14.00;99.90;;;;;;4978366;28;20609;-84
2022/11/06 09:47:53;;;;;;;7.13;1.85;;;14.00;99.90;;;;;;4991047;28;20193;-90
2022/11/06 09:50:25;;;;;;;4.47;1.70;;;13.90;99.90;;;;;;4980736;28;20591;-92
2022/11/06 09:52:58;;;;;;;9.45;1.90;;;13.90;99.90;;;;;;4981963;28;20178;-91
2022/11/06 09:55:32;;;;;;;4.22;1.38;;;14.10;99.90;;;;;;4980695;28;20166;-94
2022/11/06 09:58:02;;;;;;;7.50;1.92;;;14.00;99.90;;;;;;4978247;28;20285;-93
2022/11/06 10:00:28;;;;;;;3.05;1.33;;;14.10;99.90;;;;;;4983245;28;20166;-94
2022/11/06 10:03:04;;;;;;;4.22;1.33;;;14.10;99.90;;;;;;4979652;28;20201;-90
2022/11/06 10:05:35;;;;;;;4.78;1.40;;;14.20;99.90;;;;;;4978528;28;20220;-89
2022/11/06 10:08:18;;;;;;;5.47;2.05;;;14.30;99.90;;;;;;4977567;28;20190;-79
2022/11/06 10:11:02;;;;;;;2.78;1.10;;;14.10;99.90;;;;;;4977299;28;20166;-78
2022/11/06 10:13:34;;;;;;;5.05;1.48;;;14.20;99.90;;;;;;4976041;28;20204;-80
2022/11/06 10:16:08;;;;;;;7.28;1.25;;;14.10;99.90;;;;;;4977181;28;20173;-79
2022/11/06 10:18:39;;;;;;;1.88;1.45;;;14.20;99.90;;;;;;4975701;28;20205;-78
2022/11/06 10:21:17;;;;;;;5.40;1.80;;;14.30;99.90;;;;;;4975506;28;20177;-79
2022/11/06 10:23:58;;;;;;;7.05;1.30;;;14.00;99.90;;;;;;4977229;28;20174;-78
2022/11/06 10:26:38;;;;;;;3.05;1.45;;;14.20;99.90;;;;;;4978325;28;20695;-77
2022/11/06 10:29:37;;;;;;;4.65;1.80;;;14.10;99.90;;;;;;4979756;28;20186;-78
2022/11/06 10:32:29;;;;;;;3.58;1.63;;;14.10;99.90;;;;;;4988491;28;20182;-78
2022/11/06 10:35:11;;;;;;;3.67;1.63;;;14.10;99.90;;;;;;4977228;28;20216;-90
2022/11/06 10:37:46;;;;;;;2.33;1.52;;;14.00;99.90;;;;;;4978416;28;20181;-85
2022/11/06 10:40:27;;;;;;;5.60;1.83;;;14.10;99.90;;;;;;4979169;28;20296;-78
2022/11/06 10:43:07;;;;;;;6.40;1.90;;;14.20;99.90;;;;;;4977705;28;20176;-79
2022/11/06 10:45:35;;;;;;;6.20;1.45;;;14.00;99.90;;;;;;4985296;28;20177;-81
2022/11/06 10:48:21;;;;;;;4.63;2.60;;;14.10;99.90;;;;;;4986521;28;20188;-82
2022/11/06 10:51:19;;;;;;;5.53;2.10;;;14.00;99.90;;;;;;4987466;28;20200;-78
2022/11/06 10:54:12;;;;;;;8.20;2.10;;;14.00;99.90;;;;;;4930145;29;20569;-85
2022/11/06 10:57:07;;;;;;;2.63;1.30;;;14.10;99.90;;;;;;4981453;28;20636;-78
2022/11/06 10:59:33;;;;;;;1.40;1.13;;;14.00;99.90;;;;;;4980702;28;20249;-79
2022/11/06 11:01:58;;;;;;;4.30;1.90;;;13.90;99.90;;;;;;4977199;28;20174;-79
2022/11/06 11:04:24;;;;;;;2.40;1.42;;;13.90;99.90;;;;;;4976707;28;20553;-93
2022/11/06 11:06:49;;;;;;;5.72;2.90;;;14.10;99.90;;;;;;4977692;28;20162;-93
2022/11/06 11:09:30;;;;;;;5.13;1.50;;;14.20;99.90;;;;;;4977794;28;20551;-91
2022/11/06 11:11:57;;;;;;;6.18;1.58;;;14.10;99.90;;;;;;4978702;28;20192;-95
2022/11/06 11:14:25;;;;;;;7.07;2.00;;;14.10;99.90;;;;;;4978595;28;20256;-90
2022/11/06 11:16:51;;;;;;;6.05;1.58;;;14.20;99.90;;;;;;4978765;28;20166;-89
2022/11/06 11:19:24;;;;;;;4.82;1.80;;;14.30;99.90;;;;;;4976840;28;20217;-92
2022/11/06 11:22:15;;;;;;;4.80;2.00;;;14.20;99.90;;;;;;4977303;28;20174;-94
2022/11/06 11:25:22;;;;;;;4.47;1.63;;;14.10;99.90;;;;;;4976226;28;20166;-89
2022/11/06 11:27:48;;;;;;;5.43;1.33;;;14.00;99.90;;;;;;4976794;28;20244;-93
2022/11/06 11:30:21;;;;;;;7.72;1.50;;;13.80;99.90;;;;;;4981060;28;20213;-91
2022/11/06 11:32:47;;;;;;;5.18;2.08;;;13.90;99.90;;;;;;4977647;28;20174;-89
2022/11/06 11:35:19;;;;;;;5.82;2.00;;;14.00;99.90;;;;;;4981224;28;20220;-90
2022/11/06 11:37:45;;;;;;;8.20;1.65;;;14.10;99.90;;;;;;4979332;28;20262;-94
2022/11/06 11:40:40;;;;;;;4.20;1.33;;;14.10;99.90;;;;;;4975786;28;20337;-85
2022/11/06 11:43:24;;;;;;;9.05;1.50;;;13.80;99.90;;;;;;4969736;28;20284;-94
2022/11/06 11:46:03;;;;;;;2.95;1.27;;;13.70;99.90;;;;;;4980646;28;20194;-91
2022/11/06 11:48:54;;;;;;;4.00;1.55;;;13.60;99.90;;;;;;4977788;28;20672;-86
2022/11/06 11:51:42;;;;;;;5.10;1.80;;;13.60;99.90;;;;;;4979744;28;20730;-90
2022/11/06 11:54:08;;;;;;;10.25;2.30;;;13.70;99.90;;;;;;4982577;28;20174;-94
2022/11/06 11:56:48;;;;;;;6.88;2.35;;;13.60;99.90;;;;;;4982074;28;20675;-95
2022/11/06 11:59:20;;;;;;;5.75;1.98;;;13.60;99.90;;;;;;4979461;28;20309;-93
2022/11/06 12:01:47;;;;;;;5.07;1.60;;;13.60;99.90;;;;;;4976524;28;20170;-94
2022/11/06 12:04:21;;;;;;;7.30;1.98;;;13.50;99.90;;;;;;4978718;28;20249;-89
2022/11/06 12:06:55;;;;;;;4.72;2.00;;;13.50;99.90;;;;;;4983625;28;20172;-90
2022/11/06 12:09:23;;;;;;;3.38;1.45;;;13.30;99.90;;;;;;4983619;28;20189;-93
2022/11/06 12:11:49;;;;;;;6.10;1.40;;;13.30;99.90;;;;;;4980318;28;20170;-81
2022/11/06 12:14:21;;;;;;;5.05;1.50;;;13.30;99.90;;;;;;4980542;28;20162;-90
2022/11/06 12:16:50;;;;;;;11.18;2.65;;;13.20;99.90;;;;;;4975224;28;20185;-79
2022/11/06 12:19:19;;;;;;;7.88;1.95;;;13.20;99.90;;;;;;4977317;28;20206;-86
2022/11/06 12:21:52;;;;;;;6.90;1.60;;;13.20;99.90;;;;;;4975756;28;20189;-80
2022/11/06 12:24:24;;;;;;;7.70;1.92;;;13.00;99.90;;;;;;4976163;28;20173;-80
2022/11/06 12:27:05;;;;;;;4.85;1.98;;;12.90;99.90;;;;;;4973590;28;20170;-80
2022/11/06 12:30:11;;;;;;;4.53;1.40;;;12.90;99.90;;;;;;4978351;28;20169;-85
2022/11/06 12:33:02;;;;;;;10.93;2.15;;;12.80;99.90;;;;;;4979485;28;20181;-84
2022/11/06 12:35:34;;;;;;;6.40;2.03;;;12.70;99.90;;;;;;4978004;28;20651;-84
2022/11/06 12:38:17;;;;;;;5.72;1.90;;;12.60;99.90;;;;;;4978721;28;20243;-89
2022/11/06 12:40:49;;;;;;;7.30;1.67;;;12.60;99.90;;;;;;4979125;28;20217;-81
2022/11/06 12:43:33;;;;;;;5.57;1.67;;;12.60;99.90;;;;;;4976591;28;20162;-78
2022/11/06 12:46:37;;;;;;;3.22;1.45;;;12.50;99.90;;;;;;4976375;28;20197;-83
2022/11/06 12:49:36;;;;;;;6.35;1.83;;;12.40;99.90;;;;;;4954396;28;20268;-83
2022/11/06 12:52:10;;;;;;;6.95;1.83;;;12.40;99.90;;;;;;4978562;28;20280;-89
2022/11/06 12:55:14;;;;;;;2.50;2.00;;;12.30;99.90;;;;;;4981265;28;20166;-86
2022/11/06 12:57:56;;;;;;;4.35;1.85;;;12.20;99.90;;;;;;4982573;28;20189;-81
2022/11/06 13:00:24;;;;;;;5.82;1.90;;;12.30;99.90;;;;;;4980019;28;20206;-78
2022/11/06 13:03:27;;;;;;;10.38;2.63;;;12.20;99.90;;;;;;4987714;28;20226;-82
2022/11/06 13:06:07;;;;;;;9.80;2.00;;;12.20;99.90;;;;;;4984046;28;20173;-78
2022/11/06 13:08:39;;;;;;;10.30;2.10;;;12.00;99.90;;;;;;4978162;28;20694;-83
2022/11/06 13:11:08;;;;;;;6.68;1.65;;;12.10;99.90;;;;;;4977600;28;20189;-82
2022/11/06 13:14:10;;;;;;;6.03;1.85;;;12.20;99.90;;;;;;4975086;28;20166;-81
2022/11/06 13:16:59;;;;;;;5.25;2.30;;;12.20;99.90;;;;;;4975261;28;20186;-79
2022/11/06 13:19:39;;;;;;;6.15;2.42;;;11.90;99.90;;;;;;4975681;28;20575;-79
2022/11/06 13:22:17;;;;;;;14.02;2.72;;;11.90;99.90;;;;;;4977646;28;20165;-83
2022/11/06 13:24:58;;;;;;;11.90;2.47;;;11.80;99.90;;;;;;4974348;28;20208;-80
2022/11/06 13:27:43;;;;;;;3.65;1.95;;;11.70;99.90;;;;;;4974403;28;20190;-79